Time;durP1;ratioP1;P1;durP2;ratioP2;P2;SDS_P1;SDS_P2;PMS_P1;PMS_P2;Temp;Humidity;BMP_temperature;BMP_pressure;BME280_temperature;BME280_humidity;BME280_pressure;Samples;Min_cycle;Max_cycle;Signal;HPM_P1;HPM_P2
2022/11/02 00:01:28;;;;;;;80.75;43.42;;;;;;;;;;5034022;28;20109;-72
2022/11/02 00:03:54;;;;;;;67.93;43.33;;;;;;;;;;5034106;28;20372;-72
2022/11/02 00:06:20;;;;;;;96.05;45.90;;;;;;;;;;5033286;28;20037;-71
2022/11/02 00:08:46;;;;;;;78.55;46.60;;;;;;;;;;5033919;28;20033;-71
2022/11/02 00:11:12;;;;;;;89.93;49.58;;;;;;;;;;5034028;28;20033;-71
2022/11/02 00:13:37;;;;;;;90.00;50.67;;;;;;;;;;5034012;28;20037;-72
2022/11/02 00:16:06;;;;;;;88.95;49.08;;;;;;;;;;5028066;28;20044;-73
2022/11/02 00:18:34;;;;;;;84.53;43.53;;;;;;;;;;5033720;28;20839;-72
2022/11/02 00:21:01;;;;;;;82.82;44.83;;;;;;;;;;5033303;28;20445;-72
2022/11/02 00:23:27;;;;;;;83.43;43.60;;;;;;;;;;5033357;28;20072;-71
2022/11/02 00:25:54;;;;;;;97.63;43.75;;;;;;;;;;5031472;28;20041;-72
2022/11/02 00:28:20;;;;;;;88.72;41.90;;;;;;;;;;5032718;28;20044;-72
2022/11/02 00:30:47;;;;;;;75.75;41.58;;;;;;;;;;5029624;28;20410;-73
2022/11/02 00:33:13;;;;;;;73.72;39.28;;;;;;;;;;5012096;28;20021;-73
2022/11/02 00:35:40;;;;;;;71.30;37.88;;;;;;;;;;5032518;28;20400;-71
2022/11/02 00:38:06;;;;;;;79.47;39.53;;;;;;;;;;5032964;28;20017;-71
2022/11/02 00:40:32;;;;;;;89.90;49.78;;;;;;;;;;5023262;28;20584;-72
2022/11/02 00:42:57;;;;;;;88.47;44.22;;;;;;;;;;5032783;28;20518;-72
2022/11/02 00:45:24;;;;;;;79.18;41.95;;;;;;;;;;5032893;28;20033;-71
2022/11/02 00:47:50;;;;;;;71.93;40.17;;;;;;;;;;5016304;28;20028;-71
2022/11/02 00:50:18;;;;;;;84.35;39.60;;;;;;;;;;5016103;28;20041;-71
2022/11/02 00:52:44;;;;;;;70.45;39.90;;;;;;;;;;5033375;28;20103;-72
2022/11/02 00:55:11;;;;;;;66.55;39.58;;;;;;;;;;5015892;28;20029;-71
2022/11/02 00:57:41;;;;;;;68.90;39.67;;;;;;;;;;5033053;28;20391;-71
2022/11/02 01:00:09;;;;;;;55.17;31.75;;;;;;;;;;5033603;28;20065;-71
2022/11/02 01:02:36;;;;;;;51.45;28.95;;;;;;;;;;5033258;28;20022;-71
2022/11/02 01:05:06;;;;;;;55.25;31.67;;;;;;;;;;5016322;28;20120;-71
2022/11/02 01:07:32;;;;;;;54.50;31.73;;;;;;;;;;5032494;28;20045;-71
2022/11/02 01:09:58;;;;;;;53.00;30.77;;;;;;;;;;5032165;28;20083;-71
2022/11/02 01:12:24;;;;;;;57.28;32.92;;;;;;;;;;5015883;28;20029;-71
2022/11/02 01:14:50;;;;;;;66.95;37.75;;;;;;;;;;5033109;28;20037;-71
2022/11/02 01:17:17;;;;;;;64.72;35.78;;;;;;;;;;5032879;28;20501;-71
2022/11/02 01:19:42;;;;;;;62.97;36.60;;;;;;;;;;5032712;28;20026;-72
2022/11/02 01:22:08;;;;;;;62.28;37.33;;;;;;;;;;5030622;28;20043;-72
2022/11/02 01:24:34;;;;;;;58.25;34.72;;;;;;;;;;5031245;28;20404;-71
2022/11/02 01:27:02;;;;;;;59.85;36.25;;;;;;;;;;5032160;28;20042;-70
2022/11/02 01:29:28;;;;;;;63.40;35.92;;;;;;;;;;5032395;28;20040;-71
2022/11/02 01:31:54;;;;;;;59.05;37.33;;;;;;;;;;5028158;28;20037;-72
2022/11/02 01:34:20;;;;;;;62.38;37.10;;;;;;;;;;5014185;28;20092;-72
2022/11/02 01:36:46;;;;;;;79.63;42.30;;;;;;;;;;5018639;28;20029;-72
2022/11/02 01:39:14;;;;;;;72.40;40.67;;;;;;;;;;5032118;28;20112;-72
2022/11/02 01:41:40;;;;;;;67.65;39.65;;;;;;;;;;5032985;28;20108;-72
2022/11/02 01:44:28;;;;;;;81.32;43.60;;;;;;;;;;5030937;28;20029;-71
2022/11/02 01:46:59;;;;;;;77.68;42.90;;;;;;;;;;5013145;28;20037;-71
2022/11/02 01:49:26;;;;;;;78.88;44.50;;;;;;;;;;5032200;28;20029;-72
2022/11/02 01:52:03;;;;;;;75.75;44.38;;;;;;;;;;5028598;28;20041;-72
2022/11/02 01:54:36;;;;;;;77.55;42.10;;;;;;;;;;5031339;28;20029;-71
2022/11/02 01:57:05;;;;;;;74.22;39.50;;;;;;;;;;5028257;28;20120;-72
2022/11/02 02:00:03;;;;;;;63.25;35.15;;;;;;;;;;5011293;28;20029;-72
2022/11/02 02:02:49;;;;;;;57.63;33.80;;;;;;;;;;5025733;28;20041;-71
2022/11/02 02:05:16;;;;;;;61.95;35.10;;;;;;;;;;4998287;28;20491;-72
2022/11/02 02:07:43;;;;;;;65.72;37.08;;;;;;;;;;5013774;28;20529;-72
2022/11/02 02:10:09;;;;;;;71.70;38.97;;;;;;;;;;5014158;28;20092;-72
2022/11/02 02:12:38;;;;;;;67.78;37.22;;;;;;;;;;5011814;28;20021;-71
2022/11/02 02:15:05;;;;;;;65.55;38.17;;;;;;;;;;5013290;28;20083;-71
2022/11/02 02:17:43;;;;;;;76.47;43.28;;;;;;;;;;5013528;28;20025;-71
2022/11/02 02:20:21;;;;;;;74.78;42.47;;;;;;;;;;5017456;28;20121;-71
2022/11/02 02:23:18;;;;;;;80.47;45.55;;;;;;;;;;4997479;28;20116;-71
2022/11/02 02:26:22;;;;;;;86.00;45.33;;;;;;;;;;5027568;28;20049;-72
2022/11/02 02:28:52;;;;;;;71.72;40.15;;;;;;;;;;5026374;28;20041;-70
2022/11/02 02:31:32;;;;;;;68.30;39.88;;;;;;;;;;5030457;28;20128;-71
2022/11/02 02:34:22;;;;;;;64.70;38.40;;;;;;;;;;5031074;28;20050;-72
2022/11/02 02:36:59;;;;;;;68.72;40.72;;;;;;;;;;5029938;28;20059;-70
2022/11/02 02:39:34;;;;;;;72.05;39.35;;;;;;;;;;5020269;28;20109;-71
2022/11/02 02:42:10;;;;;;;74.28;40.33;;;;;;;;;;5031140;28;20025;-71
2022/11/02 02:44:37;;;;;;;72.68;39.75;;;;;;;;;;5012608;28;20033;-71
2022/11/02 02:47:26;;;;;;;70.32;39.55;;;;;;;;;;5028739;28;20022;-71
2022/11/02 02:50:00;;;;;;;69.43;38.75;;;;;;;;;;5012314;28;20042;-71
2022/11/02 02:52:26;;;;;;;68.53;38.58;;;;;;;;;;5011184;28;20487;-72
2022/11/02 02:54:57;;;;;;;69.28;38.15;;;;;;;;;;5012412;28;20554;-71
2022/11/02 02:57:26;;;;;;;66.35;36.28;;;;;;;;;;5029686;28;20029;-71
2022/11/02 02:59:53;;;;;;;68.05;35.78;;;;;;;;;;5027501;28;20036;-71
2022/11/02 03:02:36;;;;;;;61.15;34.13;;;;;;;;;;5009769;28;20053;-72
2022/11/02 03:05:20;;;;;;;63.90;33.78;;;;;;;;;;5021556;28;20030;-71
2022/11/02 03:07:46;;;;;;;60.38;34.63;;;;;;;;;;5033946;28;20036;-72
2022/11/02 03:10:19;;;;;;;50.95;33.22;;;;;;;;;;5051845;28;20021;-72
2022/11/02 03:13:04;;;;;;;55.55;31.85;;;;;;;;;;5033637;28;20056;-72
2022/11/02 03:15:37;;;;;;;61.30;33.72;;;;;;;;;;5033141;28;20063;-71
2022/11/02 03:18:13;;;;;;;56.65;33.58;;;;;;;;;;5033760;28;20037;-72
2022/11/02 03:20:40;;;;;;;55.28;30.88;;;;;;;;;;5033728;28;20033;-71
2022/11/02 03:23:24;;;;;;;58.85;31.77;;;;;;;;;;5051490;28;20079;-72
2022/11/02 03:26:11;;;;;;;54.63;30.85;;;;;;;;;;5051432;28;20049;-72
2022/11/02 03:29:01;;;;;;;54.80;32.28;;;;;;;;;;5018912;28;20037;-72
2022/11/02 03:31:50;;;;;;;56.15;32.15;;;;;;;;;;5033197;28;20444;-71
2022/11/02 03:34:19;;;;;;;52.15;31.08;;;;;;;;;;5033530;28;20498;-72
2022/11/02 03:36:55;;;;;;;61.90;33.70;;;;;;;;;;5051215;28;20060;-72
2022/11/02 03:39:53;;;;;;;54.28;33.33;;;;;;;;;;5005409;28;20038;-72
2022/11/02 03:42:22;;;;;;;59.13;34.20;;;;;;;;;;5008680;28;20069;-71
2022/11/02 03:44:57;;;;;;;65.35;35.00;;;;;;;;;;5010582;28;20478;-72
2022/11/02 03:47:24;;;;;;;;;;;;;;;;;;5011645;28;20097;-71
2022/11/02 03:49:54;;;;;;;64.80;37.50;;;;;;;;;;5010003;28;19920;-71
2022/11/02 03:52:24;;;;;;;74.95;39.17;;;;;;;;;;5011397;28;20030;-72
2022/11/02 03:55:05;;;;;;;65.68;37.15;;;;;;;;;;5009248;28;20499;-72
2022/11/02 03:57:45;;;;;;;62.97;39.88;;;;;;;;;;5009814;28;20052;-72
2022/11/02 04:00:24;;;;;;;72.50;41.58;;;;;;;;;;5008444;28;20405;-71
2022/11/02 04:02:59;;;;;;;64.88;39.28;;;;;;;;;;5009917;28;20053;-71
2022/11/02 04:05:32;;;;;;;68.35;41.92;;;;;;;;;;5010387;28;20037;-72
2022/11/02 04:08:23;;;;;;;64.97;39.40;;;;;;;;;;5010394;28;20045;-71
2022/11/02 04:16:30;;;;;;;63.40;36.15;;;;;;;;;;5041176;28;20034;-72
2022/11/02 04:25:14;;;;;;;70.03;40.78;;;;;;;;;;5007259;28;20030;-72
2022/11/02 04:27:17;;;;;;;69.05;37.90;;;;;;;;;;5036649;28;20045;-72
2022/11/02 04:29:44;;;;;;;65.35;39.47;;;;;;;;;;4994356;28;20045;-72
2022/11/02 04:32:10;;;;;;;63.67;38.45;;;;;;;;;;4991617;28;20038;-71
2022/11/02 04:34:36;;;;;;;67.97;40.17;;;;;;;;;;5008820;28;20079;-71
2022/11/02 04:38:39;;;;;;;68.35;40.65;;;;;;;;;;4993416;28;20509;-72
2022/11/02 04:39:48;;;;;;;76.05;42.13;;;;;;;;;;5011353;28;20037;-73
2022/11/02 04:42:14;;;;;;;68.57;39.92;;;;;;;;;;5011341;28;20038;-71
2022/11/02 04:44:48;;;;;;;69.07;38.88;;;;;;;;;;4996687;28;20441;-72
2022/11/02 04:47:21;;;;;;;77.28;40.75;;;;;;;;;;4997181;28;20104;-72
2022/11/02 04:49:46;;;;;;;76.57;40.20;;;;;;;;;;4996433;28;20483;-72
2022/11/02 04:52:16;;;;;;;83.95;41.58;;;;;;;;;;5029554;28;20439;-72
2022/11/02 04:54:47;;;;;;;70.00;39.55;;;;;;;;;;4996715;28;20038;-71
2022/11/02 04:57:13;;;;;;;84.50;41.83;;;;;;;;;;5021205;28;20118;-72
2022/11/02 04:59:39;;;;;;;73.00;40.97;;;;;;;;;;5007742;28;20022;-72
2022/11/02 05:02:06;;;;;;;73.63;41.22;;;;;;;;;;5040451;28;20064;-72
2022/11/02 05:04:32;;;;;;;73.95;40.63;;;;;;;;;;5011933;28;20033;-72
2022/11/02 05:06:59;;;;;;;72.47;42.47;;;;;;;;;;5012698;28;20526;-73
2022/11/02 05:09:26;;;;;;;69.18;39.63;;;;;;;;;;5011052;28;20041;-72
2022/11/02 05:11:52;;;;;;;67.43;39.97;;;;;;;;;;4997963;28;20070;-72
2022/11/02 05:14:18;;;;;;;71.15;38.22;;;;;;;;;;5004893;28;20068;-71
2022/11/02 05:16:44;;;;;;;76.00;41.85;;;;;;;;;;5011320;28;20034;-72
2022/11/02 05:19:12;;;;;;;85.05;41.13;;;;;;;;;;5013477;28;20021;-72
2022/11/02 05:21:38;;;;;;;96.40;43.35;;;;;;;;;;5012085;28;20042;-72
2022/11/02 05:24:05;;;;;;;76.82;41.42;;;;;;;;;;5011666;28;20037;-72
2022/11/02 05:26:32;;;;;;;76.22;39.35;;;;;;;;;;5012042;28;20061;-70
2022/11/02 05:28:58;;;;;;;83.63;43.33;;;;;;;;;;5008711;28;20527;-72
2022/11/02 05:31:24;;;;;;;75.68;41.28;;;;;;;;;;5001589;28;20478;-71
2022/11/02 05:33:49;;;;;;;84.78;45.13;;;;;;;;;;5005184;28;20144;-72
2022/11/02 05:36:19;;;;;;;73.30;42.17;;;;;;;;;;5013297;28;20088;-71
2022/11/02 05:38:53;;;;;;;67.82;40.28;;;;;;;;;;5011653;28;20033;-72
2022/11/02 05:41:20;;;;;;;81.30;39.83;;;;;;;;;;5045251;28;20040;-72
2022/11/02 05:43:47;;;;;;;69.47;38.95;;;;;;;;;;5012462;28;20487;-72
2022/11/02 05:46:15;;;;;;;95.85;40.22;;;;;;;;;;5048154;28;20073;-72
2022/11/02 05:48:41;;;;;;;65.00;38.70;;;;;;;;;;5052712;28;20024;-71
2022/11/02 05:51:08;;;;;;;80.50;39.85;;;;;;;;;;5034804;28;20571;-72
2022/11/02 05:53:37;;;;;;;81.80;39.55;;;;;;;;;;5051025;28;20029;-71
2022/11/02 05:56:05;;;;;;;57.47;29.90;;;;;;;;;;5046074;28;20115;-71
2022/11/02 05:58:31;;;;;;;69.18;36.25;;;;;;;;;;5032108;28;20056;-72
2022/11/02 06:00:59;;;;;;;42.17;27.80;;;;;;;;;;5027779;28;20147;-71
2022/11/02 06:03:25;;;;;;;61.35;32.65;;;;;;;;;;5032119;28;20022;-72
2022/11/02 06:06:02;;;;;;;66.90;32.65;;;;;;;;;;5031899;28;20031;-73
2022/11/02 06:08:32;;;;;;;52.65;31.15;;;;;;;;;;5032158;28;20069;-72
2022/11/02 06:10:57;;;;;;;64.35;32.92;;;;;;;;;;5030601;28;20127;-71
2022/11/02 06:13:25;;;;;;;49.20;29.30;;;;;;;;;;5029502;28;20080;-71
2022/11/02 06:15:51;;;;;;;43.13;28.38;;;;;;;;;;5021373;28;20036;-72
2022/11/02 06:18:17;;;;;;;47.50;28.02;;;;;;;;;;5031122;28;20095;-72
2022/11/02 06:20:43;;;;;;;49.75;28.10;;;;;;;;;;5032193;28;20029;-72
2022/11/02 06:23:08;;;;;;;43.20;25.65;;;;;;;;;;5027706;28;20176;-72
2022/11/02 06:25:34;;;;;;;42.78;25.45;;;;;;;;;;5027392;28;20107;-72
2022/11/02 06:28:00;;;;;;;50.05;26.45;;;;;;;;;;5026498;28;20030;-72
2022/11/02 06:30:29;;;;;;;48.03;25.50;;;;;;;;;;5012343;28;20121;-74
2022/11/02 06:32:55;;;;;;;53.97;29.98;;;;;;;;;;5027074;28;20124;-74
2022/11/02 06:35:22;;;;;;;45.15;27.33;;;;;;;;;;5031630;28;20025;-73
2022/11/02 06:37:48;;;;;;;50.90;27.65;;;;;;;;;;5032002;28;20096;-74
2022/11/02 06:40:14;;;;;;;40.80;26.88;;;;;;;;;;5031261;28;20541;-74
2022/11/02 06:42:40;;;;;;;47.63;26.10;;;;;;;;;;5010734;28;20052;-72
2022/11/02 06:45:07;;;;;;;42.45;26.63;;;;;;;;;;5029470;28;20064;-73
2022/11/02 06:47:35;;;;;;;43.67;26.15;;;;;;;;;;5026576;28;20037;-74
2022/11/02 06:50:03;;;;;;;45.85;27.13;;;;;;;;;;5023567;28;20025;-76
2022/11/02 06:52:29;;;;;;;40.67;26.17;;;;;;;;;;5027242;28;20395;-74
2022/11/02 06:54:55;;;;;;;45.08;26.38;;;;;;;;;;5025807;28;20021;-73
2022/11/02 06:57:21;;;;;;;46.72;25.88;;;;;;;;;;5025860;28;20053;-74
2022/11/02 06:59:47;;;;;;;52.83;27.77;;;;;;;;;;5024311;28;20022;-73
2022/11/02 07:02:14;;;;;;;42.70;24.95;;;;;;;;;;5023731;28;20375;-73
2022/11/02 07:04:39;;;;;;;41.75;25.58;;;;;;;;;;5022537;28;20416;-73
2022/11/02 07:07:06;;;;;;;47.38;26.95;;;;;;;;;;5020321;28;20037;-72
2022/11/02 07:09:32;;;;;;;41.75;26.90;;;;;;;;;;5023019;28;20033;-72
2022/11/02 07:11:58;;;;;;;50.67;30.27;;;;;;;;;;5023369;28;20043;-73
2022/11/02 07:14:23;;;;;;;44.22;25.73;;;;;;;;;;5026646;28;20017;-72
2022/11/02 07:16:49;;;;;;;57.15;27.42;;;;;;;;;;5025850;28;20037;-73
2022/11/02 07:19:15;;;;;;;41.10;26.65;;;;;;;;;;5025278;28;20025;-73
2022/11/02 07:21:41;;;;;;;38.00;25.38;;;;;;;;;;5029603;28;20418;-72
2022/11/02 07:24:07;;;;;;;39.03;24.77;;;;;;;;;;5031686;28;20072;-72
2022/11/02 07:26:33;;;;;;;41.30;26.70;;;;;;;;;;5014340;28;20084;-75
2022/11/02 07:29:00;;;;;;;39.70;24.88;;;;;;;;;;5031453;28;20029;-74
2022/11/02 07:31:26;;;;;;;43.13;24.77;;;;;;;;;;5030949;28;20037;-75
2022/11/02 07:33:52;;;;;;;44.70;27.05;;;;;;;;;;5031846;28;20021;-75
2022/11/02 07:36:18;;;;;;;39.70;26.05;;;;;;;;;;5031181;28;20033;-74
2022/11/02 07:38:44;;;;;;;48.50;27.38;;;;;;;;;;5030786;28;20017;-75
2022/11/02 07:41:10;;;;;;;42.15;24.55;;;;;;;;;;5030519;28;20060;-76
2022/11/02 07:43:36;;;;;;;47.55;25.00;;;;;;;;;;5013640;28;20451;-75
2022/11/02 07:46:12;;;;;;;47.03;27.35;;;;;;;;;;5031579;28;20048;-75
2022/11/02 07:48:39;;;;;;;42.42;26.67;;;;;;;;;;5031547;28;20536;-74
2022/11/02 07:51:06;;;;;;;44.15;25.83;;;;;;;;;;5030325;28;20026;-75
2022/11/02 07:53:33;;;;;;;43.95;29.73;;;;;;;;;;5031651;28;20056;-74
2022/11/02 07:56:00;;;;;;;51.22;28.25;;;;;;;;;;5031014;28;20052;-74
2022/11/02 07:58:26;;;;;;;42.63;28.15;;;;;;;;;;5013280;28;20040;-75
2022/11/02 08:00:53;;;;;;;44.53;27.45;;;;;;;;;;5031567;28;20037;-77
2022/11/02 08:03:19;;;;;;;46.03;29.13;;;;;;;;;;5031569;28;20451;-76
2022/11/02 08:05:45;;;;;;;51.08;28.00;;;;;;;;;;5031542;28;20056;-76
2022/11/02 08:08:19;;;;;;;49.40;26.88;;;;;;;;;;5029165;28;20037;-75
2022/11/02 08:10:48;;;;;;;41.92;27.20;;;;;;;;;;5027197;28;20037;-75
2022/11/02 08:13:18;;;;;;;43.28;25.88;;;;;;;;;;5023476;28;20029;-76
2022/11/02 08:15:44;;;;;;;51.22;27.63;;;;;;;;;;5025044;28;20036;-74
2022/11/02 08:18:15;;;;;;;40.92;25.33;;;;;;;;;;5033252;28;20021;-74
2022/11/02 08:20:41;;;;;;;41.35;25.77;;;;;;;;;;5034880;28;20140;-75
2022/11/02 08:23:09;;;;;;;39.80;24.80;;;;;;;;;;5033670;28;20025;-74
2022/11/02 08:25:36;;;;;;;40.67;24.65;;;;;;;;;;5034566;28;20076;-75
2022/11/02 08:28:03;;;;;;;39.83;24.58;;;;;;;;;;5032607;28;20112;-76
2022/11/02 08:30:31;;;;;;;47.83;26.27;;;;;;;;;;5034363;28;20483;-74
2022/11/02 08:33:10;;;;;;;36.78;23.25;;;;;;;;;;5033550;28;20025;-75
2022/11/02 08:35:36;;;;;;;36.20;24.65;;;;;;;;;;5033789;28;20041;-76
2022/11/02 08:38:03;;;;;;;38.85;24.73;;;;;;;;;;4999845;28;20029;-75
2022/11/02 08:40:29;;;;;;;40.55;24.27;;;;;;;;;;5033994;28;20037;-75
2022/11/02 08:43:00;;;;;;;45.05;25.02;;;;;;;;;;5034122;28;20025;-74
2022/11/02 08:45:27;;;;;;;37.80;24.35;;;;;;;;;;5024515;28;20098;-76
2022/11/02 08:47:53;;;;;;;42.97;24.63;;;;;;;;;;5033466;28;20028;-76
2022/11/02 08:50:21;;;;;;;34.67;23.50;;;;;;;;;;5033806;28;20446;-76
2022/11/02 08:52:47;;;;;;;38.35;23.75;;;;;;;;;;5034676;28;20029;-75
2022/11/02 08:55:13;;;;;;;37.92;23.23;;;;;;;;;;5033682;28;20049;-76
2022/11/02 08:57:50;;;;;;;37.53;23.30;;;;;;;;;;5033826;28;20032;-75
2022/11/02 09:00:21;;;;;;;37.63;23.45;;;;;;;;;;5034587;28;20513;-76
2022/11/02 09:03:17;;;;;;;42.08;21.85;;;;;;;;;;5033827;28;20060;-77
2022/11/02 09:05:46;;;;;;;37.45;21.27;;;;;;;;;;5013055;28;20049;-75
2022/11/02 09:08:15;;;;;;;34.80;21.23;;;;;;;;;;5034617;28;20369;-75
2022/11/02 09:10:43;;;;;;;31.67;21.80;;;;;;;;;;5033771;28;20112;-76
2022/11/02 09:13:11;;;;;;;28.17;19.60;;;;;;;;;;5033412;28;20048;-75
2022/11/02 09:15:39;;;;;;;33.53;21.45;;;;;;;;;;5033844;28;20033;-74
2022/11/02 09:18:05;;;;;;;32.30;19.90;;;;;;;;;;5033933;28;20420;-74
2022/11/02 09:20:32;;;;;;;30.10;20.13;;;;;;;;;;5033814;28;20029;-73
2022/11/02 09:22:58;;;;;;;30.55;20.90;;;;;;;;;;5033588;28;20029;-74
2022/11/02 09:25:25;;;;;;;35.60;20.77;;;;;;;;;;5016131;28;20129;-75
2022/11/02 09:27:55;;;;;;;39.35;21.55;;;;;;;;;;5016462;28;20108;-75
2022/11/02 09:30:22;;;;;;;40.05;21.27;;;;;;;;;;5033212;28;20136;-74
2022/11/02 09:32:55;;;;;;;39.22;21.50;;;;;;;;;;5033742;28;20034;-74
2022/11/02 09:35:22;;;;;;;31.63;19.95;;;;;;;;;;5033205;28;20041;-75
2022/11/02 09:37:48;;;;;;;30.58;18.70;;;;;;;;;;5016036;28;20467;-74
2022/11/02 09:40:27;;;;;;;37.35;20.85;;;;;;;;;;5016188;28;20030;-74
2022/11/02 09:42:58;;;;;;;40.42;19.63;;;;;;;;;;5033599;28;20036;-75
2022/11/02 09:45:24;;;;;;;32.10;18.95;;;;;;;;;;5015240;28;20034;-74
2022/11/02 09:47:57;;;;;;;26.08;18.40;;;;;;;;;;5015491;28;20029;-74
2022/11/02 09:50:29;;;;;;;30.73;19.45;;;;;;;;;;5033411;28;20491;-74
2022/11/02 09:53:03;;;;;;;38.50;20.95;;;;;;;;;;5033284;28;20083;-75
2022/11/02 09:55:36;;;;;;;34.75;19.77;;;;;;;;;;5033617;28;20065;-72
2022/11/02 09:58:10;;;;;;;30.30;18.00;;;;;;;;;;5033465;28;20120;-73
2022/11/02 10:00:40;;;;;;;36.30;19.77;;;;;;;;;;5032932;28;20048;-75
2022/11/02 10:03:24;;;;;;;32.47;19.27;;;;;;;;;;5015183;28;20033;-75
2022/11/02 10:06:14;;;;;;;30.50;17.17;;;;;;;;;;5033020;28;20503;-75
2022/11/02 10:09:19;;;;;;;27.52;16.45;;;;;;;;;;5033050;28;20394;-74
2022/11/02 10:12:13;;;;;;;28.75;16.70;;;;;;;;;;4972079;28;20043;-75
2022/11/02 10:14:53;;;;;;;33.72;15.77;;;;;;;;;;5031672;28;20049;-76
2022/11/02 10:17:28;;;;;;;25.52;15.88;;;;;;;;;;5033133;28;20029;-74
2022/11/02 10:20:01;;;;;;;25.73;14.80;;;;;;;;;;5032691;28;20063;-76
2022/11/02 10:22:33;;;;;;;22.02;15.93;;;;;;;;;;5032963;28;20029;-74
2022/11/02 10:25:04;;;;;;;24.90;14.50;;;;;;;;;;5032368;28;20053;-74
2022/11/02 10:27:35;;;;;;;27.67;15.23;;;;;;;;;;5032561;28;20084;-75
2022/11/02 10:30:13;;;;;;;24.58;13.85;;;;;;;;;;5031591;28;20069;-75
2022/11/02 10:32:59;;;;;;;23.30;12.93;;;;;;;;;;5033170;28;20037;-79
2022/11/02 10:35:59;;;;;;;19.30;12.15;;;;;;;;;;5032999;28;20044;-75
2022/11/02 10:38:43;;;;;;;25.23;11.73;;;;;;;;;;5032560;28;20041;-76
2022/11/02 10:41:30;;;;;;;22.65;12.65;;;;;;;;;;5032280;28;20053;-75
2022/11/02 10:44:24;;;;;;;23.73;13.10;;;;;;;;;;5031784;28;20120;-75
2022/11/02 10:47:00;;;;;;;;;;;;;;;;;;5032830;28;20030;-76
2022/11/02 10:49:42;;;;;;;21.27;12.32;;;;;;;;;;5032352;28;20003;-74
2022/11/02 10:52:13;;;;;;;22.15;11.75;;;;;;;;;;5031755;28;20044;-75
2022/11/02 10:54:40;;;;;;;19.20;11.30;;;;;;;;;;5031837;28;20148;-75
2022/11/02 10:57:17;;;;;;;25.80;13.75;;;;;;;;;;5030933;28;20128;-75
2022/11/02 10:59:43;;;;;;;22.02;12.88;;;;;;;;;;5026577;28;20056;-75
2022/11/02 11:02:13;;;;;;;22.83;13.32;;;;;;;;;;5028738;28;20017;-75
2022/11/02 11:04:41;;;;;;;22.50;11.77;;;;;;;;;;5028625;28;20457;-75
2022/11/02 11:07:16;;;;;;;18.45;12.23;;;;;;;;;;5010654;28;20030;-77
2022/11/02 11:09:45;;;;;;;22.95;13.25;;;;;;;;;;5022597;28;20030;-75
2022/11/02 11:12:24;;;;;;;25.45;12.20;;;;;;;;;;5027887;28;20055;-76
2022/11/02 11:14:55;;;;;;;19.27;10.65;;;;;;;;;;5024255;28;20041;-76
2022/11/02 11:17:28;;;;;;;22.38;10.43;;;;;;;;;;5020609;28;20330;-75
2022/11/02 11:19:57;;;;;;;19.67;11.70;;;;;;;;;;5040487;28;20034;-75
2022/11/02 11:22:29;;;;;;;29.02;11.63;;;;;;;;;;5029416;28;20029;-75
2022/11/02 11:25:24;;;;;;;18.73;10.47;;;;;;;;;;5029178;28;20496;-75
2022/11/02 11:27:57;;;;;;;24.33;9.93;;;;;;;;;;5022302;28;20029;-75
2022/11/02 11:30:25;;;;;;;19.50;10.07;;;;;;;;;;5021639;28;20391;-75
2022/11/02 11:32:52;;;;;;;16.67;8.52;;;;;;;;;;5011064;28;20038;-74
2022/11/02 11:35:19;;;;;;;19.83;9.55;;;;;;;;;;5045249;28;20721;-75
2022/11/02 11:38:01;;;;;;;18.90;9.30;;;;;;;;;;5007777;28;20021;-73
2022/11/02 11:40:33;;;;;;;23.80;10.68;;;;;;;;;;5023541;28;20034;-76
2022/11/02 11:43:02;;;;;;;23.80;10.50;;;;;;;;;;5023584;28;20040;-74
2022/11/02 11:45:32;;;;;;;22.20;10.32;;;;;;;;;;5030470;28;20129;-75
2022/11/02 11:48:27;;;;;;;16.08;8.48;;;;;;;;;;5029720;28;20128;-75
2022/11/02 11:50:53;;;;;;;19.95;9.23;;;;;;;;;;5019716;28;20057;-74
2022/11/02 11:53:22;;;;;;;21.10;9.50;;;;;;;;;;5028359;28;20040;-75
2022/11/02 11:55:50;;;;;;;22.95;10.65;;;;;;;;;;5026810;28;20033;-75
2022/11/02 11:58:20;;;;;;;26.02;11.18;;;;;;;;;;5030368;28;20036;-72
2022/11/02 12:01:03;;;;;;;24.67;10.65;;;;;;;;;;5030158;28;20116;-74
2022/11/02 12:03:29;;;;;;;19.38;10.63;;;;;;;;;;5021353;28;20487;-76
2022/11/02 12:06:00;;;;;;;19.70;9.60;;;;;;;;;;5017551;28;20029;-72
2022/11/02 12:08:41;;;;;;;22.17;9.55;;;;;;;;;;5028484;28;20037;-74
2022/11/02 12:11:24;;;;;;;22.77;10.07;;;;;;;;;;5028317;28;20041;-73
2022/11/02 12:14:22;;;;;;;23.13;9.50;;;;;;;;;;5030027;28;20063;-76
2022/11/02 12:17:20;;;;;;;24.48;10.05;;;;;;;;;;5029712;28;20443;-75
2022/11/02 12:20:13;;;;;;;22.73;9.65;;;;;;;;;;5030040;28;20471;-75
2022/11/02 12:22:45;;;;;;;19.90;8.73;;;;;;;;;;5012165;28;20045;-75
2022/11/02 12:25:46;;;;;;;15.48;8.25;;;;;;;;;;5029913;28;20058;-76
2022/11/02 12:28:35;;;;;;;17.58;8.65;;;;;;;;;;5029517;28;20038;-74
2022/11/02 12:31:29;;;;;;;23.05;8.02;;;;;;;;;;5011976;28;20053;-76
2022/11/02 12:34:09;;;;;;;17.40;9.02;;;;;;;;;;5028509;28;20112;-74
2022/11/02 12:36:44;;;;;;;18.48;8.48;;;;;;;;;;5029987;28;20034;-76
2022/11/02 12:39:37;;;;;;;19.02;7.93;;;;;;;;;;5030132;28;20036;-76
2022/11/02 12:42:21;;;;;;;20.48;9.40;;;;;;;;;;5030464;28;20048;-75
2022/11/02 12:45:06;;;;;;;22.30;10.93;;;;;;;;;;4996613;28;20084;-74
2022/11/02 12:47:34;;;;;;;26.00;8.57;;;;;;;;;;5029936;28;20113;-76
2022/11/02 12:50:14;;;;;;;15.60;7.65;;;;;;;;;;5030483;28;20500;-76
2022/11/02 12:53:06;;;;;;;16.38;7.97;;;;;;;;;;5013259;28;20063;-76
2022/11/02 12:55:36;;;;;;;20.55;8.00;;;;;;;;;;5029646;28;20072;-76
2022/11/02 12:58:37;;;;;;;21.77;8.00;;;;;;;;;;5030648;28;20175;-76
2022/11/02 13:01:41;;;;;;;15.82;7.25;;;;;;;;;;4977383;28;20514;-76
2022/11/02 13:04:19;;;;;;;15.32;7.63;;;;;;;;;;5030328;28;20132;-76
2022/11/02 13:06:51;;;;;;;22.13;8.23;;;;;;;;;;5033600;28;20068;-77
2022/11/02 13:09:34;;;;;;;17.52;8.38;;;;;;;;;;5033588;28;20029;-78
2022/11/02 13:12:09;;;;;;;;;;;;;;;;;;5034122;28;20040;-76
2022/11/02 13:15:01;;;;;;;11.93;7.53;;;;;;;;;;5032871;28;19913;-76
2022/11/02 13:17:40;;;;;;;14.38;7.45;;;;;;;;;;5029149;28;20057;-75
2022/11/02 13:20:43;;;;;;;18.13;7.40;;;;;;;;;;5016295;28;20121;-75
2022/11/02 13:23:18;;;;;;;21.17;8.05;;;;;;;;;;5026914;28;20056;-75
2022/11/02 13:25:50;;;;;;;20.05;8.07;;;;;;;;;;5016055;28;20045;-76
2022/11/02 13:28:31;;;;;;;18.77;7.65;;;;;;;;;;5015865;28;20033;-75
2022/11/02 13:30:59;;;;;;;15.82;6.97;;;;;;;;;;5032831;28;20498;-73
2022/11/02 13:33:33;;;;;;;17.52;7.45;;;;;;;;;;5033419;28;20025;-76
2022/11/02 13:35:59;;;;;;;17.90;8.00;;;;;;;;;;5033354;28;20037;-76
2022/11/02 13:38:47;;;;;;;16.42;7.65;;;;;;;;;;5015099;28;20025;-74
2022/11/02 13:41:50;;;;;;;15.40;8.15;;;;;;;;;;5033199;28;20538;-76
2022/11/02 13:44:32;;;;;;;23.48;8.55;;;;;;;;;;5013147;28;20562;-75
2022/11/02 13:47:10;;;;;;;13.65;6.80;;;;;;;;;;5016122;28;20145;-76
2022/11/02 13:49:48;;;;;;;18.27;7.57;;;;;;;;;;5032393;28;20033;-76
2022/11/02 13:53:00;;;;;;;17.77;7.82;;;;;;;;;;5015049;28;20402;-74
2022/11/02 13:55:51;;;;;;;14.75;7.15;;;;;;;;;;5029829;28;20055;-76
2022/11/02 13:58:25;;;;;;;18.25;7.20;;;;;;;;;;5033241;28;20037;-75
2022/11/02 14:00:57;;;;;;;20.08;7.57;;;;;;;;;;5037318;28;20197;-77
2022/11/02 14:03:31;;;;;;;15.40;7.38;;;;;;;;;;5036330;28;20031;-75
2022/11/02 14:06:00;;;;;;;19.83;7.15;;;;;;;;;;5032379;28;20064;-74
2022/11/02 14:08:34;;;;;;;14.75;7.22;;;;;;;;;;5031616;28;20104;-74
2022/11/02 14:11:24;;;;;;;17.35;7.25;;;;;;;;;;5032672;28;20034;-74
2022/11/02 14:13:51;;;;;;;18.70;8.20;;;;;;;;;;5021835;28;20050;-75
2022/11/02 14:16:43;;;;;;;17.58;8.50;;;;;;;;;;5031247;28;20022;-75
2022/11/02 14:19:47;;;;;;;15.43;8.27;;;;;;;;;;5012149;28;20041;-73
2022/11/02 14:22:14;;;;;;;;;;;;;;;;;;5022838;28;20041;-72
2022/11/02 14:24:39;;;;;;;22.92;8.30;;;;;;;;;;5022971;28;19956;-73
2022/11/02 14:27:15;;;;;;;26.13;9.10;;;;;;;;;;5023099;28;20110;-75
2022/11/02 14:29:41;;;;;;;18.65;9.48;;;;;;;;;;5022327;28;20131;-74
2022/11/02 14:32:25;;;;;;;20.50;8.90;;;;;;;;;;5020971;28;20498;-75
2022/11/02 14:35:20;;;;;;;19.85;8.50;;;;;;;;;;5030267;28;20098;-74
2022/11/02 14:38:07;;;;;;;21.27;9.63;;;;;;;;;;5031633;28;20040;-75
2022/11/02 14:40:59;;;;;;;20.13;8.60;;;;;;;;;;5030050;28;20515;-75
2022/11/02 14:43:52;;;;;;;21.83;10.10;;;;;;;;;;5014503;28;20518;-75
2022/11/02 14:46:52;;;;;;;22.35;9.30;;;;;;;;;;5022740;28;20041;-76
2022/11/02 14:49:21;;;;;;;22.75;9.40;;;;;;;;;;5022520;28;20550;-74
2022/11/02 14:52:18;;;;;;;18.83;9.90;;;;;;;;;;5023167;28;20039;-75
2022/11/02 14:54:58;;;;;;;28.40;9.77;;;;;;;;;;5027608;28;20399;-78
2022/11/02 14:57:42;;;;;;;26.88;10.65;;;;;;;;;;5023180;28;20047;-75
2022/11/02 15:00:22;;;;;;;21.90;10.25;;;;;;;;;;5023626;28;20395;-77
2022/11/02 15:02:48;;;;;;;22.38;8.95;;;;;;;;;;5025219;28;20033;-76
2022/11/02 15:05:36;;;;;;;21.98;10.10;;;;;;;;;;5023902;28;20045;-77
2022/11/02 15:08:05;;;;;;;26.83;10.38;;;;;;;;;;5022119;28;20029;-75